This is the latest recevied weather packets stored in our database for station/object RV1CJ-14. If no packets are shown the sender has not sent any weather packets the latest 10 day(s).
| Time | Temp. | Humidity | Pressure | Rain* | Wind** | Luminosity | Snow |
|---|---|---|---|---|---|---|---|
| 1777362004 | 3.89° C | 61% | 1005.8 hPa | 0 mm | - | 83 W/m² | - |
| 1777361404 | 4.44° C | 62% | 1005.6 hPa | 0 mm | - | 76 W/m² | - |
| 1777360804 | 4.44° C | 62% | 1005.4 hPa | 0 mm | - | 156 W/m² | - |
| 1777360203 | 4.44° C | 61% | 1005.2 hPa | 0 mm | - | 146 W/m² | - |
| 1777359606 | 4.44° C | 61% | 1005.2 hPa | 0 mm | - | 139 W/m² | - |
| 1777359003 | 4.44° C | 61% | 1005.2 hPa | 0 mm | - | 90 W/m² | - |
| 1777358403 | 4.44° C | 62% | 1005 hPa | 0 mm | - | 128 W/m² | - |
| 1777357806 | 3.89° C | 63% | 1005 hPa | 0 mm | - | 188 W/m² | - |
| 1777357206 | 4.44° C | 63% | 1004.9 hPa | 0 mm | - | 125 W/m² | - |
| 1777356604 | 4.44° C | 62% | 1004.7 hPa | 0 mm | - | 179 W/m² | - |
| 1777356004 | 4.44° C | 63% | 1004.7 hPa | 0 mm | - | 169 W/m² | - |
| 1777355404 | 4.44° C | 63% | 1004.6 hPa | 0 mm | - | 401 W/m² | - |
| 1777354806 | 3.89° C | 64% | 1004.8 hPa | 0 mm | - | 174 W/m² | - |
| 1777354203 | 3.89° C | 65% | 1004.7 hPa | 0 mm | - | 276 W/m² | - |
| 1777353603 | 3.33° C | 66% | 1004.7 hPa | 0 mm | - | 185 W/m² | - |
| 1777353003 | 3.33° C | 66% | 1004.6 hPa | 0 mm | - | 155 W/m² | - |
| 1777352404 | 3.33° C | 67% | 1004.5 hPa | 0 mm | - | 214 W/m² | - |
| 1777351803 | 3.33° C | 68% | 1004.5 hPa | 0 mm | - | 223 W/m² | - |
| 1777351203 | 3.33° C | 68% | 1004.5 hPa | 0 mm | - | 160 W/m² | - |
| 1777350604 | 2.78° C | 68% | 1004.5 hPa | 0 mm | - | 128 W/m² | - |
| 1777350004 | 2.78° C | 69% | 1004.5 hPa | 0 mm | - | 151 W/m² | - |
| 1777349403 | 2.22° C | 69% | 1004.5 hPa | 0 mm | - | 190 W/m² | - |
| 1777348804 | 2.22° C | 70% | 1004.6 hPa | 0 mm | - | 114 W/m² | - |
| 1777348203 | 2.22° C | 71% | 1004.5 hPa | 0 mm | - | 146 W/m² | - |
| 1777347605 | 1.67° C | 71% | 1004.5 hPa | 0 mm | - | 111 W/m² | - |
* Rain latest hour (hover to see other rain measurements)
** Current wind speed in m/s (hover to see current wind gust speed)